sensor_id;sensor_type;location;lat;lon;timestamp;temperature;humidity
14511;DHT22;7341;50.930;4.038;2022-09-25T00:01:02;13.00;99.90
14511;DHT22;7341;50.930;4.038;2022-09-25T00:03:32;12.80;99.90
14511;DHT22;7341;50.930;4.038;2022-09-25T00:06:04;12.70;99.90
14511;DHT22;7341;50.930;4.038;2022-09-25T00:08:46;12.60;99.90
14511;DHT22;7341;50.930;4.038;2022-09-25T00:11:20;12.60;99.90
14511;DHT22;7341;50.930;4.038;2022-09-25T00:13:47;12.60;99.90
14511;DHT22;7341;50.930;4.038;2022-09-25T00:16:16;12.60;99.90
14511;DHT22;7341;50.930;4.038;2022-09-25T00:18:49;12.50;99.90
14511;DHT22;7341;50.930;4.038;2022-09-25T00:21:36;12.50;99.90
14511;DHT22;7341;50.930;4.038;2022-09-25T00:24:04;12.40;99.90
14511;DHT22;7341;50.930;4.038;2022-09-25T00:26:42;12.30;99.90
14511;DHT22;7341;50.930;4.038;2022-09-25T00:29:13;12.20;99.90
14511;DHT22;7341;50.930;4.038;2022-09-25T00:31:46;12.20;99.90
14511;DHT22;7341;50.930;4.038;2022-09-25T00:34:14;12.30;99.90
14511;DHT22;7341;50.930;4.038;2022-09-25T00:36:43;12.40;99.90
14511;DHT22;7341;50.930;4.038;2022-09-25T00:39:21;12.50;99.90
14511;DHT22;7341;50.930;4.038;2022-09-25T00:41:55;12.50;99.90
14511;DHT22;7341;50.930;4.038;2022-09-25T00:44:52;12.50;99.90
14511;DHT22;7341;50.930;4.038;2022-09-25T00:47:33;12.40;99.90
14511;DHT22;7341;50.930;4.038;2022-09-25T00:50:26;12.20;99.90
14511;DHT22;7341;50.930;4.038;2022-09-25T00:53:00;12.10;99.90
14511;DHT22;7341;50.930;4.038;2022-09-25T00:55:32;12.10;99.90
14511;DHT22;7341;50.930;4.038;2022-09-25T00:58:04;12.10;99.90
14511;DHT22;7341;50.930;4.038;2022-09-25T01:00:32;12.20;99.90
14511;DHT22;7341;50.930;4.038;2022-09-25T01:03:00;12.00;99.90
14511;DHT22;7341;50.930;4.038;2022-09-25T01:05:29;12.10;99.90
14511;DHT22;7341;50.930;4.038;2022-09-25T01:08:00;12.00;99.90
14511;DHT22;7341;50.930;4.038;2022-09-25T01:10:31;12.10;99.90
14511;DHT22;7341;50.930;4.038;2022-09-25T01:12:59;12.10;99.90
14511;DHT22;7341;50.930;4.038;2022-09-25T01:15:48;12.20;99.90
14511;DHT22;7341;50.930;4.038;2022-09-25T01:18:28;12.30;99.90
14511;DHT22;7341;50.930;4.038;2022-09-25T01:21:15;12.20;99.90
14511;DHT22;7341;50.930;4.038;2022-09-25T01:30:02;12.20;99.90
14511;DHT22;7341;50.930;4.038;2022-09-25T01:35:58;12.10;99.90
14511;DHT22;7341;50.930;4.038;2022-09-25T01:38:31;12.10;99.90
14511;DHT22;7341;50.930;4.038;2022-09-25T01:41:05;12.00;99.90
14511;DHT22;7341;50.930;4.038;2022-09-25T01:43:36;11.90;99.90
14511;DHT22;7341;50.930;4.038;2022-09-25T01:46:09;11.90;99.90
14511;DHT22;7341;50.930;4.038;2022-09-25T01:48:47;11.90;99.90
14511;DHT22;7341;50.930;4.038;2022-09-25T01:51:20;11.80;99.90
14511;DHT22;7341;50.930;4.038;2022-09-25T01:53:56;11.70;99.90
14511;DHT22;7341;50.930;4.038;2022-09-25T01:56:33;11.70;99.90
14511;DHT22;7341;50.930;4.038;2022-09-25T01:59:06;11.70;99.90
14511;DHT22;7341;50.930;4.038;2022-09-25T02:01:39;11.70;99.90
14511;DHT22;7341;50.930;4.038;2022-09-25T02:04:09;11.70;99.90
14511;DHT22;7341;50.930;4.038;2022-09-25T02:06:44;11.70;99.90
14511;DHT22;7341;50.930;4.038;2022-09-25T02:09:20;11.70;99.90
14511;DHT22;7341;50.930;4.038;2022-09-25T02:11:53;11.70;99.90
14511;DHT22;7341;50.930;4.038;2022-09-25T02:14:24;11.70;99.90
14511;DHT22;7341;50.930;4.038;2022-09-25T02:16:57;11.60;99.90
14511;DHT22;7341;50.930;4.038;2022-09-25T02:19:31;11.70;99.90
14511;DHT22;7341;50.930;4.038;2022-09-25T02:22:21;11.70;99.90
14511;DHT22;7341;50.930;4.038;2022-09-25T02:24:52;11.60;99.90
14511;DHT22;7341;50.930;4.038;2022-09-25T02:27:22;11.60;99.90
14511;DHT22;7341;50.930;4.038;2022-09-25T02:29:56;11.60;99.90
14511;DHT22;7341;50.930;4.038;2022-09-25T02:32:30;11.60;99.90
14511;DHT22;7341;50.930;4.038;2022-09-25T02:34:59;11.60;99.90
14511;DHT22;7341;50.930;4.038;2022-09-25T02:37:28;11.60;99.90
14511;DHT22;7341;50.930;4.038;2022-09-25T02:40:00;11.50;99.90
14511;DHT22;7341;50.930;4.038;2022-09-25T02:42:35;11.50;99.90
14511;DHT22;7341;50.930;4.038;2022-09-25T02:45:16;11.40;99.90
14511;DHT22;7341;50.930;4.038;2022-09-25T02:48:02;11.20;99.90
14511;DHT22;7341;50.930;4.038;2022-09-25T02:50:38;11.20;99.90
14511;DHT22;7341;50.930;4.038;2022-09-25T02:53:17;11.20;99.90
14511;DHT22;7341;50.930;4.038;2022-09-25T02:55:50;11.30;99.90
14511;DHT22;7341;50.930;4.038;2022-09-25T02:58:22;11.20;99.90
14511;DHT22;7341;50.930;4.038;2022-09-25T03:00:52;11.30;99.90
14511;DHT22;7341;50.930;4.038;2022-09-25T03:03:28;11.30;99.90
14511;DHT22;7341;50.930;4.038;2022-09-25T03:05:57;11.40;99.90
14511;DHT22;7341;50.930;4.038;2022-09-25T03:08:28;11.40;99.90
14511;DHT22;7341;50.930;4.038;2022-09-25T03:11:13;11.40;99.90
14511;DHT22;7341;50.930;4.038;2022-09-25T03:13:41;11.30;99.90
14511;DHT22;7341;50.930;4.038;2022-09-25T03:16:13;11.20;99.90
14511;DHT22;7341;50.930;4.038;2022-09-25T03:18:44;11.10;99.90
14511;DHT22;7341;50.930;4.038;2022-09-25T03:21:17;11.10;99.90
14511;DHT22;7341;50.930;4.038;2022-09-25T03:23:44;11.00;99.90
14511;DHT22;7341;50.930;4.038;2022-09-25T03:26:16;11.00;99.90
14511;DHT22;7341;50.930;4.038;2022-09-25T03:29:19;10.90;99.90
14511;DHT22;7341;50.930;4.038;2022-09-25T03:31:49;10.90;99.90
14511;DHT22;7341;50.930;4.038;2022-09-25T03:34:23;10.90;99.90
14511;DHT22;7341;50.930;4.038;2022-09-25T03:36:53;10.90;99.90
14511;DHT22;7341;50.930;4.038;2022-09-25T03:39:26;10.90;99.90
14511;DHT22;7341;50.930;4.038;2022-09-25T03:41:53;10.80;99.90
14511;DHT22;7341;50.930;4.038;2022-09-25T03:44:21;10.70;99.90
14511;DHT22;7341;50.930;4.038;2022-09-25T03:46:53;10.70;99.90
14511;DHT22;7341;50.930;4.038;2022-09-25T03:49:28;10.70;99.90
14511;DHT22;7341;50.930;4.038;2022-09-25T03:51:55;10.70;99.90
14511;DHT22;7341;50.930;4.038;2022-09-25T03:54:25;10.60;99.90
14511;DHT22;7341;50.930;4.038;2022-09-25T03:56:52;10.60;99.90
14511;DHT22;7341;50.930;4.038;2022-09-25T03:59:19;10.60;99.90
14511;DHT22;7341;50.930;4.038;2022-09-25T04:01:46;10.60;99.90
14511;DHT22;7341;50.930;4.038;2022-09-25T04:04:18;10.60;99.90
14511;DHT22;7341;50.930;4.038;2022-09-25T04:06:47;10.60;99.90
14511;DHT22;7341;50.930;4.038;2022-09-25T04:09:16;10.60;99.90
14511;DHT22;7341;50.930;4.038;2022-09-25T04:11:48;10.70;99.90
14511;DHT22;7341;50.930;4.038;2022-09-25T04:14:21;10.70;99.90
14511;DHT22;7341;50.930;4.038;2022-09-25T04:16:49;10.70;99.90
14511;DHT22;7341;50.930;4.038;2022-09-25T04:19:16;10.80;99.90
14511;DHT22;7341;50.930;4.038;2022-09-25T04:21:46;10.80;99.90
14511;DHT22;7341;50.930;4.038;2022-09-25T04:24:13;10.80;99.90
14511;DHT22;7341;50.930;4.038;2022-09-25T04:26:59;10.70;99.90
14511;DHT22;7341;50.930;4.038;2022-09-25T04:29:26;10.70;99.90
14511;DHT22;7341;50.930;4.038;2022-09-25T04:31:55;10.60;99.90
14511;DHT22;7341;50.930;4.038;2022-09-25T04:34:36;10.60;99.90
14511;DHT22;7341;50.930;4.038;2022-09-25T04:37:07;10.60;99.90
14511;DHT22;7341;50.930;4.038;2022-09-25T04:39:37;10.50;99.90
14511;DHT22;7341;50.930;4.038;2022-09-25T04:42:05;10.50;99.90
14511;DHT22;7341;50.930;4.038;2022-09-25T04:44:32;10.50;99.90
14511;DHT22;7341;50.930;4.038;2022-09-25T04:46:59;10.70;99.90
14511;DHT22;7341;50.930;4.038;2022-09-25T04:49:27;10.70;99.90
14511;DHT22;7341;50.930;4.038;2022-09-25T04:51:58;10.60;99.90
14511;DHT22;7341;50.930;4.038;2022-09-25T04:54:26;10.50;99.90
14511;DHT22;7341;50.930;4.038;2022-09-25T04:56:59;10.50;99.90
14511;DHT22;7341;50.930;4.038;2022-09-25T04:59:33;10.50;99.90
14511;DHT22;7341;50.930;4.038;2022-09-25T05:02:00;10.50;99.90
14511;DHT22;7341;50.930;4.038;2022-09-25T05:04:29;10.40;99.90
14511;DHT22;7341;50.930;4.038;2022-09-25T05:06:55;10.50;99.90
14511;DHT22;7341;50.930;4.038;2022-09-25T05:09:29;10.40;99.90
14511;DHT22;7341;50.930;4.038;2022-09-25T05:12:00;10.40;99.90
14511;DHT22;7341;50.930;4.038;2022-09-25T05:14:30;10.40;99.90
14511;DHT22;7341;50.930;4.038;2022-09-25T05:16:57;10.20;99.90
14511;DHT22;7341;50.930;4.038;2022-09-25T05:19:26;10.30;99.90
14511;DHT22;7341;50.930;4.038;2022-09-25T05:21:55;10.40;99.90
14511;DHT22;7341;50.930;4.038;2022-09-25T05:24:30;10.40;99.90
14511;DHT22;7341;50.930;4.038;2022-09-25T05:27:02;10.40;99.90
14511;DHT22;7341;50.930;4.038;2022-09-25T05:29:29;10.50;99.90
14511;DHT22;7341;50.930;4.038;2022-09-25T05:32:01;10.50;99.90
14511;DHT22;7341;50.930;4.038;2022-09-25T05:34:33;10.50;99.90
14511;DHT22;7341;50.930;4.038;2022-09-25T05:37:06;10.50;99.90
14511;DHT22;7341;50.930;4.038;2022-09-25T05:39:40;10.50;99.90
14511;DHT22;7341;50.930;4.038;2022-09-25T05:42:07;10.30;99.90
14511;DHT22;7341;50.930;4.038;2022-09-25T05:44:36;10.10;99.90
14511;DHT22;7341;50.930;4.038;2022-09-25T05:47:06;10.20;99.90
14511;DHT22;7341;50.930;4.038;2022-09-25T05:49:33;10.20;99.90
14511;DHT22;7341;50.930;4.038;2022-09-25T05:52:00;10.20;99.90
14511;DHT22;7341;50.930;4.038;2022-09-25T05:54:27;10.20;99.90
14511;DHT22;7341;50.930;4.038;2022-09-25T05:56:56;10.20;99.90
14511;DHT22;7341;50.930;4.038;2022-09-25T05:59:23;10.10;99.90
14511;DHT22;7341;50.930;4.038;2022-09-25T06:01:50;10.20;99.90
14511;DHT22;7341;50.930;4.038;2022-09-25T06:04:17;10.30;99.90
14511;DHT22;7341;50.930;4.038;2022-09-25T06:06:44;10.20;99.90
14511;DHT22;7341;50.930;4.038;2022-09-25T06:09:11;10.30;99.90
14511;DHT22;7341;50.930;4.038;2022-09-25T06:11:40;10.50;99.90
14511;DHT22;7341;50.930;4.038;2022-09-25T06:14:12;10.50;99.90
14511;DHT22;7341;50.930;4.038;2022-09-25T06:16:46;10.50;99.90
14511;DHT22;7341;50.930;4.038;2022-09-25T06:19:20;10.50;99.90
14511;DHT22;7341;50.930;4.038;2022-09-25T06:21:49;10.50;99.90
14511;DHT22;7341;50.930;4.038;2022-09-25T06:24:16;10.50;99.90
14511;DHT22;7341;50.930;4.038;2022-09-25T06:26:44;10.50;99.90
14511;DHT22;7341;50.930;4.038;2022-09-25T06:29:15;10.60;99.90
14511;DHT22;7341;50.930;4.038;2022-09-25T06:31:44;10.60;99.90
14511;DHT22;7341;50.930;4.038;2022-09-25T06:34:11;10.70;99.90
14511;DHT22;7341;50.930;4.038;2022-09-25T06:36:40;10.70;99.90
14511;DHT22;7341;50.930;4.038;2022-09-25T06:39:12;10.70;99.90
14511;DHT22;7341;50.930;4.038;2022-09-25T06:41:40;10.70;99.90
14511;DHT22;7341;50.930;4.038;2022-09-25T06:44:10;10.90;99.90
14511;DHT22;7341;50.930;4.038;2022-09-25T06:46:48;10.90;99.90
14511;DHT22;7341;50.930;4.038;2022-09-25T06:49:20;11.00;99.90
14511;DHT22;7341;50.930;4.038;2022-09-25T06:51:53;11.10;99.90
14511;DHT22;7341;50.930;4.038;2022-09-25T06:54:21;11.20;99.90
14511;DHT22;7341;50.930;4.038;2022-09-25T06:56:49;11.40;99.90
14511;DHT22;7341;50.930;4.038;2022-09-25T06:59:16;11.50;99.90
14511;DHT22;7341;50.930;4.038;2022-09-25T07:01:44;11.50;99.90
14511;DHT22;7341;50.930;4.038;2022-09-25T07:04:18;11.60;99.90
14511;DHT22;7341;50.930;4.038;2022-09-25T07:06:45;11.60;99.90
14511;DHT22;7341;50.930;4.038;2022-09-25T07:09:18;11.80;99.90
14511;DHT22;7341;50.930;4.038;2022-09-25T07:11:45;11.50;99.90
14511;DHT22;7341;50.930;4.038;2022-09-25T07:14:18;11.50;99.90
14511;DHT22;7341;50.930;4.038;2022-09-25T07:16:53;11.50;99.90
14511;DHT22;7341;50.930;4.038;2022-09-25T07:19:22;11.80;99.90
14511;DHT22;7341;50.930;4.038;2022-09-25T07:21:53;11.80;99.90
14511;DHT22;7341;50.930;4.038;2022-09-25T07:24:24;12.00;99.90
14511;DHT22;7341;50.930;4.038;2022-09-25T07:26:51;12.10;99.90
14511;DHT22;7341;50.930;4.038;2022-09-25T07:29:19;12.10;99.90
14511;DHT22;7341;50.930;4.038;2022-09-25T07:31:49;12.10;99.90
14511;DHT22;7341;50.930;4.038;2022-09-25T07:34:19;12.10;99.90
14511;DHT22;7341;50.930;4.038;2022-09-25T07:36:46;12.10;99.90
14511;DHT22;7341;50.930;4.038;2022-09-25T07:39:23;12.30;99.90
14511;DHT22;7341;50.930;4.038;2022-09-25T07:41:53;12.50;99.90
14511;DHT22;7341;50.930;4.038;2022-09-25T07:44:20;12.60;99.90
14511;DHT22;7341;50.930;4.038;2022-09-25T07:46:47;12.60;99.90
14511;DHT22;7341;50.930;4.038;2022-09-25T07:49:21;12.80;99.90
14511;DHT22;7341;50.930;4.038;2022-09-25T07:51:59;12.70;99.90
14511;DHT22;7341;50.930;4.038;2022-09-25T07:54:27;12.80;99.90
14511;DHT22;7341;50.930;4.038;2022-09-25T07:56:55;13.00;99.90
14511;DHT22;7341;50.930;4.038;2022-09-25T07:59:26;13.00;99.90
14511;DHT22;7341;50.930;4.038;2022-09-25T08:01:56;13.10;99.90
14511;DHT22;7341;50.930;4.038;2022-09-25T08:04:25;13.30;99.90
14511;DHT22;7341;50.930;4.038;2022-09-25T08:06:52;13.30;99.90
14511;DHT22;7341;50.930;4.038;2022-09-25T08:09:25;13.30;99.90
14511;DHT22;7341;50.930;4.038;2022-09-25T08:11:53;13.30;99.90
14511;DHT22;7341;50.930;4.038;2022-09-25T08:14:22;13.30;99.90
14511;DHT22;7341;50.930;4.038;2022-09-25T08:16:55;13.50;99.90
14511;DHT22;7341;50.930;4.038;2022-09-25T08:19:29;13.60;99.90
14511;DHT22;7341;50.930;4.038;2022-09-25T08:21:58;13.90;99.90
14511;DHT22;7341;50.930;4.038;2022-09-25T08:24:27;14.10;99.90
14511;DHT22;7341;50.930;4.038;2022-09-25T08:26:54;14.00;99.90
14511;DHT22;7341;50.930;4.038;2022-09-25T08:29:21;14.10;99.90
14511;DHT22;7341;50.930;4.038;2022-09-25T08:32:02;14.20;99.90
14511;DHT22;7341;50.930;4.038;2022-09-25T08:34:36;14.20;99.90
14511;DHT22;7341;50.930;4.038;2022-09-25T08:37:02;14.20;99.90
14511;DHT22;7341;50.930;4.038;2022-09-25T08:39:38;14.30;99.90
14511;DHT22;7341;50.930;4.038;2022-09-25T08:42:25;14.40;99.90
14511;DHT22;7341;50.930;4.038;2022-09-25T08:44:58;14.40;99.90
14511;DHT22;7341;50.930;4.038;2022-09-25T08:47:40;14.50;99.90
14511;DHT22;7341;50.930;4.038;2022-09-25T08:50:34;14.60;99.90
14511;DHT22;7341;50.930;4.038;2022-09-25T08:53:05;14.80;99.90
14511;DHT22;7341;50.930;4.038;2022-09-25T08:55:39;14.90;99.90
14511;DHT22;7341;50.930;4.038;2022-09-25T08:58:26;15.00;99.90
14511;DHT22;7341;50.930;4.038;2022-09-25T09:00:59;15.20;99.90
14511;DHT22;7341;50.930;4.038;2022-09-25T09:03:28;15.20;99.90
14511;DHT22;7341;50.930;4.038;2022-09-25T09:06:01;14.80;99.90
14511;DHT22;7341;50.930;4.038;2022-09-25T09:08:31;15.00;99.90
14511;DHT22;7341;50.930;4.038;2022-09-25T09:11:02;15.10;99.90
14511;DHT22;7341;50.930;4.038;2022-09-25T09:13:35;15.20;99.90
14511;DHT22;7341;50.930;4.038;2022-09-25T09:16:09;15.30;99.90
14511;DHT22;7341;50.930;4.038;2022-09-25T09:18:41;15.40;99.90
14511;DHT22;7341;50.930;4.038;2022-09-25T09:21:18;15.40;99.90
14511;DHT22;7341;50.930;4.038;2022-09-25T09:23:52;15.40;99.90
14511;DHT22;7341;50.930;4.038;2022-09-25T09:26:27;15.50;99.90
14511;DHT22;7341;50.930;4.038;2022-09-25T09:31:59;15.60;99.90
14511;DHT22;7341;50.930;4.038;2022-09-25T09:34:50;15.60;99.90
14511;DHT22;7341;50.930;4.038;2022-09-25T09:37:42;15.80;99.90
14511;DHT22;7341;50.930;4.038;2022-09-25T09:40:30;16.20;99.90
14511;DHT22;7341;50.930;4.038;2022-09-25T09:43:21;16.10;99.90
14511;DHT22;7341;50.930;4.038;2022-09-25T09:45:58;16.00;99.90
14511;DHT22;7341;50.930;4.038;2022-09-25T09:48:35;15.80;99.90
14511;DHT22;7341;50.930;4.038;2022-09-25T09:51:09;15.60;99.90
14511;DHT22;7341;50.930;4.038;2022-09-25T09:53:40;15.60;99.90
14511;DHT22;7341;50.930;4.038;2022-09-25T09:56:11;15.40;99.90
14511;DHT22;7341;50.930;4.038;2022-09-25T09:58:45;15.40;99.90
14511;DHT22;7341;50.930;4.038;2022-09-25T10:01:23;15.40;99.90
14511;DHT22;7341;50.930;4.038;2022-09-25T10:03:55;15.60;99.90
14511;DHT22;7341;50.930;4.038;2022-09-25T10:06:27;15.90;99.90
14511;DHT22;7341;50.930;4.038;2022-09-25T10:08:56;16.00;99.90
14511;DHT22;7341;50.930;4.038;2022-09-25T10:11:25;16.10;99.90
14511;DHT22;7341;50.930;4.038;2022-09-25T10:13:52;16.20;99.90
14511;DHT22;7341;50.930;4.038;2022-09-25T10:16:21;15.90;99.90
14511;DHT22;7341;50.930;4.038;2022-09-25T10:18:52;15.70;99.90
14511;DHT22;7341;50.930;4.038;2022-09-25T10:21:21;15.60;99.90
14511;DHT22;7341;50.930;4.038;2022-09-25T10:23:50;15.60;99.90
14511;DHT22;7341;50.930;4.038;2022-09-25T10:26:29;15.60;99.90
14511;DHT22;7341;50.930;4.038;2022-09-25T10:28:59;15.50;99.90
14511;DHT22;7341;50.930;4.038;2022-09-25T10:31:29;15.50;99.90
14511;DHT22;7341;50.930;4.038;2022-09-25T10:33:59;15.60;99.90
14511;DHT22;7341;50.930;4.038;2022-09-25T10:36:31;15.80;99.90
14511;DHT22;7341;50.930;4.038;2022-09-25T10:39:00;16.00;99.90
14511;DHT22;7341;50.930;4.038;2022-09-25T10:41:40;16.10;99.90
14511;DHT22;7341;50.930;4.038;2022-09-25T10:44:20;16.50;99.90
14511;DHT22;7341;50.930;4.038;2022-09-25T10:46:47;16.50;99.90
14511;DHT22;7341;50.930;4.038;2022-09-25T10:49:44;16.60;99.90
14511;DHT22;7341;50.930;4.038;2022-09-25T10:52:28;16.50;99.90
14511;DHT22;7341;50.930;4.038;2022-09-25T10:55:12;16.50;99.90
14511;DHT22;7341;50.930;4.038;2022-09-25T10:57:42;16.30;99.90
14511;DHT22;7341;50.930;4.038;2022-09-25T11:00:20;16.30;99.90
14511;DHT22;7341;50.930;4.038;2022-09-25T11:02:50;16.30;99.90
14511;DHT22;7341;50.930;4.038;2022-09-25T11:05:22;16.40;99.90
14511;DHT22;7341;50.930;4.038;2022-09-25T11:07:52;16.60;99.90
14511;DHT22;7341;50.930;4.038;2022-09-25T11:10:21;16.80;99.90
14511;DHT22;7341;50.930;4.038;2022-09-25T11:12:53;17.10;99.90
14511;DHT22;7341;50.930;4.038;2022-09-25T11:15:25;16.70;99.90
14511;DHT22;7341;50.930;4.038;2022-09-25T11:17:53;16.70;99.90
14511;DHT22;7341;50.930;4.038;2022-09-25T11:20:24;16.80;99.90
14511;DHT22;7341;50.930;4.038;2022-09-25T11:23:00;16.80;99.90
14511;DHT22;7341;50.930;4.038;2022-09-25T11:25:35;16.90;99.90
14511;DHT22;7341;50.930;4.038;2022-09-25T11:28:11;17.00;99.90
14511;DHT22;7341;50.930;4.038;2022-09-25T11:30:42;17.40;99.90
14511;DHT22;7341;50.930;4.038;2022-09-25T11:33:20;17.40;99.90
14511;DHT22;7341;50.930;4.038;2022-09-25T11:35:51;17.50;99.90
14511;DHT22;7341;50.930;4.038;2022-09-25T11:38:27;17.30;99.90
14511;DHT22;7341;50.930;4.038;2022-09-25T11:41:19;17.30;99.90
14511;DHT22;7341;50.930;4.038;2022-09-25T11:43:56;17.10;99.90
14511;DHT22;7341;50.930;4.038;2022-09-25T11:46:31;17.00;99.90
14511;DHT22;7341;50.930;4.038;2022-09-25T11:49:09;16.70;99.90
14511;DHT22;7341;50.930;4.038;2022-09-25T11:52:17;16.70;99.90
14511;DHT22;7341;50.930;4.038;2022-09-25T11:55:08;16.80;99.90
14511;DHT22;7341;50.930;4.038;2022-09-25T11:57:47;17.10;99.90
14511;DHT22;7341;50.930;4.038;2022-09-25T12:00:23;17.50;99.90
14511;DHT22;7341;50.930;4.038;2022-09-25T12:03:05;17.50;99.90
14511;DHT22;7341;50.930;4.038;2022-09-25T12:05:50;17.50;99.90
14511;DHT22;7341;50.930;4.038;2022-09-25T12:08:30;17.50;99.90
14511;DHT22;7341;50.930;4.038;2022-09-25T12:11:06;17.10;99.90
14511;DHT22;7341;50.930;4.038;2022-09-25T12:13:43;16.30;99.90
14511;DHT22;7341;50.930;4.038;2022-09-25T12:16:20;15.60;99.90
14511;DHT22;7341;50.930;4.038;2022-09-25T12:19:04;15.20;99.90
14511;DHT22;7341;50.930;4.038;2022-09-25T12:21:39;15.00;99.90
14511;DHT22;7341;50.930;4.038;2022-09-25T12:24:19;14.80;99.90
14511;DHT22;7341;50.930;4.038;2022-09-25T12:26:54;14.60;99.90
14511;DHT22;7341;50.930;4.038;2022-09-25T12:29:36;14.70;99.90
14511;DHT22;7341;50.930;4.038;2022-09-25T12:32:24;15.00;99.90
14511;DHT22;7341;50.930;4.038;2022-09-25T12:35:03;15.30;99.90
14511;DHT22;7341;50.930;4.038;2022-09-25T12:37:39;15.50;99.90
14511;DHT22;7341;50.930;4.038;2022-09-25T12:40:15;15.60;99.90
14511;DHT22;7341;50.930;4.038;2022-09-25T12:42:49;15.80;99.90
14511;DHT22;7341;50.930;4.038;2022-09-25T12:45:28;15.90;99.90
14511;DHT22;7341;50.930;4.038;2022-09-25T12:48:06;15.90;99.90
14511;DHT22;7341;50.930;4.038;2022-09-25T12:50:42;15.90;99.90
14511;DHT22;7341;50.930;4.038;2022-09-25T12:53:24;16.10;99.90
14511;DHT22;7341;50.930;4.038;2022-09-25T12:55:55;16.30;99.90
14511;DHT22;7341;50.930;4.038;2022-09-25T12:58:33;16.30;99.90
14511;DHT22;7341;50.930;4.038;2022-09-25T13:01:10;16.00;99.90
14511;DHT22;7341;50.930;4.038;2022-09-25T13:03:46;16.00;99.90
14511;DHT22;7341;50.930;4.038;2022-09-25T13:06:21;16.20;99.90
14511;DHT22;7341;50.930;4.038;2022-09-25T13:08:54;16.20;99.90
14511;DHT22;7341;50.930;4.038;2022-09-25T13:11:34;16.10;99.90
14511;DHT22;7341;50.930;4.038;2022-09-25T13:14:13;16.20;99.90
14511;DHT22;7341;50.930;4.038;2022-09-25T13:16:42;16.30;99.90
14511;DHT22;7341;50.930;4.038;2022-09-25T13:19:23;16.40;99.90
14511;DHT22;7341;50.930;4.038;2022-09-25T13:21:52;16.50;99.90
14511;DHT22;7341;50.930;4.038;2022-09-25T13:24:42;16.60;99.90
14511;DHT22;7341;50.930;4.038;2022-09-25T13:27:15;16.70;99.90
14511;DHT22;7341;50.930;4.038;2022-09-25T13:29:54;16.80;99.90
14511;DHT22;7341;50.930;4.038;2022-09-25T13:32:23;17.00;99.90
14511;DHT22;7341;50.930;4.038;2022-09-25T13:34:57;17.20;99.90
14511;DHT22;7341;50.930;4.038;2022-09-25T13:37:30;17.50;99.90
14511;DHT22;7341;50.930;4.038;2022-09-25T13:39:58;17.70;99.90
14511;DHT22;7341;50.930;4.038;2022-09-25T13:42:45;17.70;99.90
14511;DHT22;7341;50.930;4.038;2022-09-25T13:45:29;17.80;99.90
14511;DHT22;7341;50.930;4.038;2022-09-25T13:48:03;17.60;99.90
14511;DHT22;7341;50.930;4.038;2022-09-25T13:50:35;17.60;99.90
14511;DHT22;7341;50.930;4.038;2022-09-25T13:53:25;17.70;99.90
14511;DHT22;7341;50.930;4.038;2022-09-25T13:56:21;17.60;99.90
14511;DHT22;7341;50.930;4.038;2022-09-25T14:01:42;17.50;99.90
14511;DHT22;7341;50.930;4.038;2022-09-25T14:04:14;17.30;99.90
14511;DHT22;7341;50.930;4.038;2022-09-25T14:06:47;16.90;99.90
14511;DHT22;7341;50.930;4.038;2022-09-25T14:09:18;16.80;99.90
14511;DHT22;7341;50.930;4.038;2022-09-25T14:11:50;16.40;99.90
14511;DHT22;7341;50.930;4.038;2022-09-25T14:14:28;16.20;99.90
14511;DHT22;7341;50.930;4.038;2022-09-25T14:16:57;16.30;99.90
14511;DHT22;7341;50.930;4.038;2022-09-25T14:19:26;16.30;99.90
14511;DHT22;7341;50.930;4.038;2022-09-25T14:22:00;16.50;99.90
14511;DHT22;7341;50.930;4.038;2022-09-25T14:24:29;16.40;99.90
14511;DHT22;7341;50.930;4.038;2022-09-25T14:26:58;16.50;99.90
14511;DHT22;7341;50.930;4.038;2022-09-25T14:29:29;16.50;99.90
14511;DHT22;7341;50.930;4.038;2022-09-25T14:32:11;16.50;99.90
14511;DHT22;7341;50.930;4.038;2022-09-25T14:34:53;16.90;99.90
14511;DHT22;7341;50.930;4.038;2022-09-25T14:37:35;17.00;99.90
14511;DHT22;7341;50.930;4.038;2022-09-25T14:40:16;17.10;99.90
14511;DHT22;7341;50.930;4.038;2022-09-25T14:45:57;17.10;99.90
14511;DHT22;7341;50.930;4.038;2022-09-25T14:48:30;17.40;99.90
14511;DHT22;7341;50.930;4.038;2022-09-25T14:51:02;17.80;99.90
14511;DHT22;7341;50.930;4.038;2022-09-25T14:53:36;18.10;99.90
14511;DHT22;7341;50.930;4.038;2022-09-25T14:56:04;18.90;99.90
14511;DHT22;7341;50.930;4.038;2022-09-25T14:58:38;18.80;99.90
14511;DHT22;7341;50.930;4.038;2022-09-25T15:01:12;18.60;99.90
14511;DHT22;7341;50.930;4.038;2022-09-25T15:03:44;18.60;99.90
14511;DHT22;7341;50.930;4.038;2022-09-25T15:06:26;18.50;99.90
14511;DHT22;7341;50.930;4.038;2022-09-25T15:08:56;18.10;99.90
14511;DHT22;7341;50.930;4.038;2022-09-25T15:11:51;18.00;99.90
14511;DHT22;7341;50.930;4.038;2022-09-25T15:14:20;17.90;99.90
14511;DHT22;7341;50.930;4.038;2022-09-25T15:16:48;17.60;99.90
14511;DHT22;7341;50.930;4.038;2022-09-25T15:19:36;17.30;99.90
14511;DHT22;7341;50.930;4.038;2022-09-25T15:22:08;17.20;99.90
14511;DHT22;7341;50.930;4.038;2022-09-25T15:24:44;17.20;99.90
14511;DHT22;7341;50.930;4.038;2022-09-25T15:27:15;17.40;99.90
14511;DHT22;7341;50.930;4.038;2022-09-25T15:29:44;17.30;99.90
14511;DHT22;7341;50.930;4.038;2022-09-25T15:32:16;17.10;99.90
14511;DHT22;7341;50.930;4.038;2022-09-25T15:34:45;17.00;99.90
14511;DHT22;7341;50.930;4.038;2022-09-25T15:37:20;17.20;99.90
14511;DHT22;7341;50.930;4.038;2022-09-25T15:39:53;17.10;99.90
14511;DHT22;7341;50.930;4.038;2022-09-25T15:42:24;17.10;99.90
14511;DHT22;7341;50.930;4.038;2022-09-25T15:44:51;17.00;99.90
14511;DHT22;7341;50.930;4.038;2022-09-25T15:47:49;17.00;99.90
14511;DHT22;7341;50.930;4.038;2022-09-25T15:50:24;16.70;99.90
14511;DHT22;7341;50.930;4.038;2022-09-25T15:52:55;16.80;99.90
14511;DHT22;7341;50.930;4.038;2022-09-25T15:55:23;17.00;99.90
14511;DHT22;7341;50.930;4.038;2022-09-25T15:57:51;17.00;99.90
14511;DHT22;7341;50.930;4.038;2022-09-25T16:00:22;17.10;99.90
14511;DHT22;7341;50.930;4.038;2022-09-25T16:03:13;16.80;99.90
14511;DHT22;7341;50.930;4.038;2022-09-25T16:06:00;16.80;99.90
14511;DHT22;7341;50.930;4.038;2022-09-25T16:08:30;16.50;99.90
14511;DHT22;7341;50.930;4.038;2022-09-25T16:11:14;16.30;99.90
14511;DHT22;7341;50.930;4.038;2022-09-25T16:13:43;16.30;99.90
14511;DHT22;7341;50.930;4.038;2022-09-25T16:16:17;16.50;99.90
14511;DHT22;7341;50.930;4.038;2022-09-25T16:18:44;16.60;99.90
14511;DHT22;7341;50.930;4.038;2022-09-25T16:21:26;16.60;99.90
14511;DHT22;7341;50.930;4.038;2022-09-25T16:23:57;16.60;99.90
14511;DHT22;7341;50.930;4.038;2022-09-25T16:26:35;16.40;99.90
14511;DHT22;7341;50.930;4.038;2022-09-25T16:29:06;16.40;99.90
14511;DHT22;7341;50.930;4.038;2022-09-25T16:31:41;16.50;99.90
14511;DHT22;7341;50.930;4.038;2022-09-25T16:34:18;16.50;99.90
14511;DHT22;7341;50.930;4.038;2022-09-25T16:36:53;16.60;99.90
14511;DHT22;7341;50.930;4.038;2022-09-25T16:39:28;16.40;99.90
14511;DHT22;7341;50.930;4.038;2022-09-25T16:41:59;16.50;99.90
14511;DHT22;7341;50.930;4.038;2022-09-25T16:44:47;16.40;99.90